Time;durP1;ratioP1;P1;durP2;ratioP2;P2;SDS_P1;SDS_P2;PMS_P1;PMS_P2;Temp;Humidity;BMP_temperature;BMP_pressure;BME280_temperature;BME280_humidity;BME280_pressure;Samples;Min_cycle;Max_cycle;Signal;HPM_P1;HPM_P2
2023/11/17 00:01:27;;;;;;;26.35;12.88;;;;;;;6.69;100.00;97465.72;5010090;28;20382;-75
2023/11/17 00:03:53;;;;;;;23.42;12.68;;;;;;;6.71;100.00;97462.06;4993732;28;20022;-76
2023/11/17 00:06:19;;;;;;;26.42;12.30;;;;;;;6.79;100.00;97465.22;5011075;28;20033;-75
2023/11/17 00:08:46;;;;;;;30.02;14.20;;;;;;;6.82;100.00;97469.53;5009735;28;20440;-75
2023/11/17 00:11:12;;;;;;;35.17;16.35;;;;;;;6.87;100.00;97471.03;5009634;28;20030;-76
2023/11/17 00:13:39;;;;;;;29.23;14.32;;;;;;;6.85;100.00;97491.50;5009784;28;20042;-75
2023/11/17 00:16:06;;;;;;;27.88;14.80;;;;;;;6.81;100.00;97495.25;5011096;28;20029;-75
2023/11/17 00:18:33;;;;;;;27.83;14.82;;;;;;;6.61;100.00;97498.00;5009012;28;20037;-74
2023/11/17 00:20:59;;;;;;;22.40;12.88;;;;;;;6.60;100.00;97501.56;5006953;28;20022;-75
2023/11/17 00:23:27;;;;;;;20.52;11.02;;;;;;;6.50;100.00;97505.59;4993051;28;20468;-75
2023/11/17 00:25:54;;;;;;;19.33;10.43;;;;;;;6.47;100.00;97500.41;4993508;28;20433;-74
2023/11/17 00:28:23;;;;;;;20.77;9.63;;;;;;;6.35;100.00;97485.03;4993351;28;20061;-75
2023/11/17 00:30:49;;;;;;;27.40;10.02;;;;;;;6.28;100.00;97499.53;5009601;28;20030;-75
2023/11/17 00:33:15;;;;;;;18.65;9.65;;;;;;;6.32;100.00;97490.50;4992897;28;20037;-75
2023/11/17 00:35:41;;;;;;;16.20;9.23;;;;;;;6.35;100.00;97488.56;5009938;28;20235;-75
2023/11/17 00:38:07;;;;;;;19.33;10.27;;;;;;;6.34;100.00;97478.00;5009334;28;20112;-76
2023/11/17 00:40:33;;;;;;;21.95;10.85;;;;;;;6.32;100.00;97479.88;4993184;28;20030;-74
2023/11/17 00:43:00;;;;;;;19.45;10.35;;;;;;;6.35;100.00;97471.78;4992979;28;20030;-75
2023/11/17 00:45:27;;;;;;;14.25;9.07;;;;;;;6.25;100.00;97470.47;5009741;28;20048;-76
2023/11/17 00:47:52;;;;;;;19.55;9.93;;;;;;;6.20;100.00;97476.00;5008641;28;20049;-74
2023/11/17 00:50:18;;;;;;;16.80;9.23;;;;;;;6.20;100.00;97446.78;5009356;28;20037;-76
2023/11/17 00:52:44;;;;;;;20.58;9.55;;;;;;;6.36;100.00;97460.22;5009197;28;20104;-76
2023/11/17 00:55:13;;;;;;;19.05;10.57;;;;;;;6.37;100.00;97467.25;5009465;28;20042;-74
2023/11/17 00:57:44;;;;;;;20.77;10.45;;;;;;;6.31;100.00;97460.41;5009948;28;20053;-76
2023/11/17 01:00:13;;;;;;;19.17;9.80;;;;;;;6.19;100.00;97463.66;5009361;28;20116;-74
2023/11/17 01:02:39;;;;;;;20.23;10.40;;;;;;;6.20;100.00;97453.88;4993665;28;20112;-74
2023/11/17 01:05:09;;;;;;;18.00;10.73;;;;;;;6.29;100.00;97442.84;5009418;28;20505;-76
2023/11/17 01:07:35;;;;;;;20.55;11.35;;;;;;;6.36;100.00;97450.47;4993392;28;20041;-76
2023/11/17 01:10:04;;;;;;;17.67;10.57;;;;;;;6.37;100.00;97443.31;5009478;28;20469;-75
2023/11/17 01:12:34;;;;;;;19.95;10.98;;;;;;;6.40;100.00;97435.22;5009049;28;20397;-75
2023/11/17 01:15:03;;;;;;;17.48;10.27;;;;;;;6.46;100.00;97414.53;5009221;28;20033;-76
2023/11/17 01:17:29;;;;;;;22.27;11.18;;;;;;;6.19;100.00;97399.03;5009208;28;20041;-74
2023/11/17 01:19:54;;;;;;;23.58;11.80;;;;;;;6.31;100.00;97393.16;5009149;28;20022;-75
2023/11/17 01:22:20;;;;;;;21.67;11.73;;;;;;;6.33;100.00;97384.22;5009131;28;20095;-76
2023/11/17 01:24:46;;;;;;;21.17;10.48;;;;;;;6.37;100.00;97371.63;5009029;28;20029;-75
2023/11/17 01:27:12;;;;;;;21.23;9.77;;;;;;;6.45;100.00;97374.78;5008959;28;20046;-75
2023/11/17 01:29:37;;;;;;;22.50;10.50;;;;;;;6.36;100.00;97364.59;5009130;28;20092;-75
2023/11/17 01:32:03;;;;;;;20.27;10.93;;;;;;;6.46;100.00;97355.25;5010096;28;20398;-76
2023/11/17 01:34:29;;;;;;;21.88;11.23;;;;;;;6.41;100.00;97352.81;5008843;28;20034;-75
2023/11/17 01:36:55;;;;;;;27.25;11.65;;;;;;;6.35;100.00;97345.13;5008892;28;20120;-75
2023/11/17 01:39:21;;;;;;;21.33;11.73;;;;;;;6.23;100.00;97336.91;5009052;28;20026;-74
2023/11/17 01:41:50;;;;;;;23.02;10.95;;;;;;;6.20;100.00;97342.34;5009207;28;20485;-75
2023/11/17 01:44:16;;;;;;;20.88;11.25;;;;;;;6.21;100.00;97328.16;5008917;28;20030;-75
2023/11/17 01:46:44;;;;;;;25.73;12.02;;;;;;;5.96;100.00;97331.97;5008961;28;20164;-75
2023/11/17 01:49:12;;;;;;;19.60;10.93;;;;;;;5.91;100.00;97341.94;5009173;28;20184;-75
2023/11/17 01:51:38;;;;;;;25.45;11.50;;;;;;;5.91;100.00;97336.63;4993232;28;20029;-75
2023/11/17 01:54:04;;;;;;;20.63;11.77;;;;;;;6.01;100.00;97323.78;4990652;28;20060;-75
2023/11/17 01:56:31;;;;;;;24.95;12.07;;;;;;;6.00;100.00;97299.03;5008663;28;20485;-76
2023/11/17 01:58:57;;;;;;;18.70;10.80;;;;;;;6.09;100.00;97310.16;5008802;28;20036;-76
2023/11/17 02:01:25;;;;;;;21.77;11.65;;;;;;;6.12;100.00;97299.41;5011069;28;20029;-74
2023/11/17 02:03:51;;;;;;;22.48;11.98;;;;;;;6.09;100.00;97291.59;5013520;28;20022;-76
2023/11/17 02:06:25;;;;;;;26.20;11.95;;;;;;;6.08;100.00;97305.78;5013384;28;20026;-76
2023/11/17 02:09:15;;;;;;;22.23;11.45;;;;;;;6.08;100.00;97297.81;5012402;28;20029;-76
2023/11/17 02:11:46;;;;;;;21.48;10.20;;;;;;;5.92;100.00;97269.34;5011441;28;20109;-76
2023/11/17 02:14:24;;;;;;;16.58;10.30;;;;;;;5.96;100.00;97270.06;4995605;28;20034;-75
2023/11/17 02:16:50;;;;;;;22.10;10.27;;;;;;;5.91;100.00;97253.47;5011822;28;20037;-75
2023/11/17 02:19:37;;;;;;;20.88;10.23;;;;;;;5.84;100.00;97260.00;5011954;28;20073;-76
2023/11/17 02:22:08;;;;;;;21.13;9.95;;;;;;;5.89;100.00;97256.22;5011835;28;20101;-75
2023/11/17 02:25:11;;;;;;;17.63;9.68;;;;;;;5.98;100.00;97269.06;5011778;28;20049;-75
2023/11/17 02:28:07;;;;;;;18.15;9.95;;;;;;;5.90;100.00;97263.28;4999762;28;20042;-75
2023/11/17 02:30:34;;;;;;;19.77;11.25;;;;;;;5.80;100.00;97242.50;4995577;28;20033;-75
2023/11/17 02:33:00;;;;;;;22.63;11.95;;;;;;;5.70;100.00;97247.38;5011502;28;20041;-75
2023/11/17 02:35:29;;;;;;;21.00;11.65;;;;;;;5.72;100.00;97237.56;5011542;28;20037;-75
2023/11/17 02:37:59;;;;;;;19.80;11.02;;;;;;;5.72;100.00;97239.38;5011467;28;20033;-75
2023/11/17 02:40:25;;;;;;;18.58;9.82;;;;;;;5.71;100.00;97248.25;5011701;28;20105;-76
2023/11/17 02:42:56;;;;;;;18.85;9.80;;;;;;;5.70;100.00;97243.88;5011405;28;20025;-75
2023/11/17 02:45:25;;;;;;;19.42;10.80;;;;;;;5.70;100.00;97241.22;4995972;28;20034;-76
2023/11/17 02:47:56;;;;;;;19.95;10.73;;;;;;;5.78;100.00;97250.53;5011384;28;20473;-74
2023/11/17 02:50:31;;;;;;;24.13;10.82;;;;;;;5.80;100.00;97242.50;5011388;28;20401;-77
2023/11/17 02:53:18;;;;;;;12.52;4.63;;;;;;;6.40;100.00;97201.47;5011709;28;21528;-75
2023/11/17 02:55:45;;;;;;;1.50;1.00;;;;;;;8.27;100.00;97160.06;4997562;28;20520;-75
2023/11/17 02:58:12;;;;;;;3.63;1.23;;;;;;;9.34;100.00;97150.75;5011279;28;20037;-76
2023/11/17 03:00:42;;;;;;;1.75;0.90;;;;;;;10.01;100.00;97128.53;5011323;28;20512;-76
2023/11/17 03:03:07;;;;;;;1.35;1.02;;;;;;;10.43;99.33;97087.38;5011393;28;20410;-75
2023/11/17 03:05:34;;;;;;;1.15;0.80;;;;;;;10.77;94.21;97113.53;5011132;28;20034;-75
2023/11/17 03:08:00;;;;;;;7.10;0.93;;;;;;;10.92;90.35;97108.91;5010915;28;20029;-75
2023/11/17 03:10:26;;;;;;;1.33;1.15;;;;;;;11.01;86.91;97100.25;5011068;28;20405;-76
2023/11/17 03:12:55;;;;;;;1.95;0.63;;;;;;;11.21;83.77;97101.50;5011464;28;20508;-76
2023/11/17 03:15:22;;;;;;;1.52;1.13;;;;;;;11.28;80.49;97090.25;5012233;28;20037;-75
2023/11/17 03:17:49;;;;;;;5.05;1.08;;;;;;;11.37;78.78;97096.75;5010711;28;20033;-75
2023/11/17 03:20:15;;;;;;;3.17;1.85;;;;;;;11.30;80.79;97087.44;5010723;28;20060;-75
2023/11/17 03:22:47;;;;;;;1.38;0.90;;;;;;;11.28;80.92;97094.75;4994242;28;20054;-75
2023/11/17 03:25:17;;;;;;;3.97;0.90;;;;;;;11.22;81.72;97087.16;4994665;28;20033;-76
2023/11/17 03:27:43;;;;;;;1.55;1.27;;;;;;;11.08;83.79;97082.78;4994736;28;20025;-75
2023/11/17 03:30:10;;;;;;;1.83;1.02;;;;;;;11.10;82.20;97070.16;4994342;28;20076;-76
2023/11/17 03:32:36;;;;;;;2.67;1.40;;;;;;;10.95;83.00;97065.88;4994344;28;20057;-76
2023/11/17 03:35:04;;;;;;;4.63;1.20;;;;;;;11.10;81.78;97071.97;4993975;28;20123;-75
2023/11/17 03:37:33;;;;;;;1.13;0.90;;;;;;;11.07;82.05;97057.00;4994330;28;20030;-75
2023/11/17 03:39:59;;;;;;;3.65;2.00;;;;;;;11.05;83.36;97042.00;4994140;28;20049;-75
2023/11/17 03:42:24;;;;;;;2.75;1.95;;;;;;;10.97;84.90;97058.63;4994079;28;20037;-75
2023/11/17 03:44:51;;;;;;;1.33;0.82;;;;;;;10.92;84.60;97066.09;4993886;28;20025;-75
2023/11/17 03:47:17;;;;;;;2.08;1.00;;;;;;;10.86;86.48;97075.41;4993999;28;20086;-73
2023/11/17 03:49:47;;;;;;;1.67;1.05;;;;;;;10.81;86.79;97084.75;4993925;28;20044;-75
2023/11/17 03:52:14;;;;;;;0.88;0.88;;;;;;;10.72;87.85;97067.53;4993586;28;20123;-75
2023/11/17 03:54:40;;;;;;;1.67;0.90;;;;;;;10.69;88.67;97088.28;4977654;28;20030;-76
2023/11/17 03:57:06;;;;;;;2.15;1.10;;;;;;;10.64;89.86;97096.59;4993557;28;20026;-75
2023/11/17 03:59:32;;;;;;;7.45;1.13;;;;;;;10.60;90.51;97092.44;4993991;28;20026;-76
2023/11/17 04:01:58;;;;;;;4.35;1.00;;;;;;;10.52;92.14;97092.09;4993636;28;20045;-76
2023/11/17 04:04:25;;;;;;;1.17;1.02;;;;;;;10.48;92.73;97087.09;4993589;28;20473;-76
2023/11/17 04:06:54;;;;;;;2.38;1.05;;;;;;;10.56;91.58;97087.41;4993909;28;20026;-76
2023/11/17 04:09:21;;;;;;;1.85;1.05;;;;;;;10.54;93.69;97070.63;4977616;28;20456;-75
2023/11/17 04:11:47;;;;;;;1.95;1.00;;;;;;;10.59;92.02;97071.16;4977298;28;20029;-74
2023/11/17 04:14:13;;;;;;;1.95;0.80;;;;;;;10.69;89.42;97069.56;4993326;28;20402;-75
2023/11/17 04:16:39;;;;;;;3.55;2.22;;;;;;;10.67;90.53;97069.69;5011383;28;20029;-76
2023/11/17 04:19:05;;;;;;;5.22;3.20;;;;;;;10.71;91.08;97080.97;5010756;28;20026;-77
2023/11/17 04:21:31;;;;;;;2.33;1.55;;;;;;;10.68;90.35;97057.13;5011112;28;20030;-77
2023/11/17 04:23:56;;;;;;;5.55;1.40;;;;;;;10.62;91.04;97070.94;4992827;28;20504;-76
2023/11/17 04:26:22;;;;;;;2.40;1.58;;;;;;;10.69;91.07;97058.84;5000063;28;20050;-76
2023/11/17 04:28:47;;;;;;;2.28;1.33;;;;;;;10.63;91.50;97053.94;5009659;28;20095;-74
2023/11/17 04:31:13;;;;;;;2.38;1.35;;;;;;;10.65;90.48;97049.31;5010808;28;20033;-76
2023/11/17 04:33:40;;;;;;;1.52;1.08;;;;;;;10.69;90.22;97046.34;5009129;28;20030;-76
2023/11/17 04:36:09;;;;;;;1.70;1.10;;;;;;;10.76;88.92;97049.44;4992712;28;20090;-75
2023/11/17 04:38:34;;;;;;;1.13;0.85;;;;;;;10.74;88.86;97037.97;5009672;28;20483;-75
2023/11/17 04:41:00;;;;;;;6.18;1.27;;;;;;;10.79;88.32;97050.09;5009569;28;20140;-76
2023/11/17 04:43:25;;;;;;;1.20;1.10;;;;;;;10.84;88.06;97057.78;5009341;28;20024;-76
2023/11/17 04:45:51;;;;;;;1.77;1.40;;;;;;;10.80;88.98;97053.59;5010663;28;20030;-75
2023/11/17 04:48:18;;;;;;;1.50;1.13;;;;;;;10.83;86.99;97042.66;4992797;28;20440;-76
2023/11/17 04:50:44;;;;;;;1.75;1.27;;;;;;;10.94;85.00;97044.59;5010532;28;20030;-76
2023/11/17 04:53:09;;;;;;;2.67;1.45;;;;;;;11.07;83.28;97040.94;5009050;28;20037;-76
2023/11/17 04:55:35;;;;;;;2.10;1.15;;;;;;;11.16;81.78;97018.88;5009031;28;20022;-75
2023/11/17 04:58:01;;;;;;;1.58;1.02;;;;;;;11.27;80.41;97028.78;5009267;28;20022;-76
2023/11/17 05:00:27;;;;;;;3.13;1.38;;;;;;;11.40;78.97;97032.28;5009327;28;20069;-76
2023/11/17 05:02:53;;;;;;;1.10;1.00;;;;;;;11.41;78.37;97034.81;4992813;28;20105;-74
2023/11/17 05:05:22;;;;;;;1.58;1.10;;;;;;;11.42;78.77;97049.94;5009144;28;20030;-75
2023/11/17 05:07:48;;;;;;;1.92;0.95;;;;;;;11.44;76.97;97033.75;4992478;28;20029;-76
2023/11/17 05:10:15;;;;;;;2.03;1.30;;;;;;;11.49;75.28;97014.66;4992556;28;20038;-75
2023/11/17 05:12:43;;;;;;;1.10;0.90;;;;;;;11.54;74.17;97029.41;4992778;28;20030;-75
2023/11/17 05:15:13;;;;;;;1.85;1.40;;;;;;;11.66;72.51;97033.84;5009121;28;20037;-76
2023/11/17 05:17:48;;;;;;;1.17;1.08;;;;;;;11.68;72.67;97018.53;5007201;28;20074;-75
2023/11/17 05:20:18;;;;;;;3.28;1.27;;;;;;;11.70;73.26;97026.50;4990760;28;20040;-76
2023/11/17 05:22:45;;;;;;;1.33;1.00;;;;;;;11.70;73.51;97021.13;5007304;28;20420;-75
2023/11/17 05:25:13;;;;;;;3.50;1.88;;;;;;;11.67;73.60;97026.69;5008795;28;20034;-75
2023/11/17 05:27:40;;;;;;;32.78;12.48;;;;;;;11.70;72.85;97015.78;4976391;28;20029;-76
2023/11/17 05:30:07;;;;;;;5.63;3.22;;;;;;;11.69;74.12;97014.06;4976373;28;20320;-75
2023/11/17 05:32:37;;;;;;;2.92;1.88;;;;;;;11.69;72.75;96985.41;4991736;28;20041;-76
2023/11/17 05:35:07;;;;;;;3.45;1.23;;;;;;;11.64;73.93;96976.88;4994582;28;20041;-74
2023/11/17 05:37:33;;;;;;;3.20;1.75;;;;;;;11.57;74.54;96947.97;4996782;28;20037;-76
2023/11/17 05:39:58;;;;;;;3.60;1.88;;;;;;;11.50;76.08;96925.31;4980216;28;20056;-76
2023/11/17 05:42:24;;;;;;;3.88;1.45;;;;;;;11.57;75.21;96915.84;5013498;28;20037;-76
2023/11/17 05:44:49;;;;;;;3.15;1.67;;;;;;;11.58;75.09;96934.47;4996063;28;20121;-74
2023/11/17 05:47:16;;;;;;;3.55;1.83;;;;;;;11.61;75.30;96939.59;4996179;28;20109;-75
2023/11/17 05:49:44;;;;;;;2.15;1.42;;;;;;;11.63;74.54;96936.81;4996450;28;20030;-76
2023/11/17 05:52:11;;;;;;;2.53;2.03;;;;;;;11.63;74.58;96936.81;4996313;28;20440;-76
2023/11/17 05:54:43;;;;;;;3.78;1.60;;;;;;;11.64;74.11;96943.88;4996023;28;20072;-75
2023/11/17 05:57:27;;;;;;;;;;;;;;;11.79;73.46;96980.25;4996210;28;20034;-75
2023/11/17 05:59:53;;;;;;;5.15;2.35;;;;;;;11.82;73.96;96994.28;4995914;28;20000;-76
2023/11/17 06:02:19;;;;;;;2.47;1.50;;;;;;;11.85;74.37;97007.44;4976436;28;20041;-76
2023/11/17 06:04:46;;;;;;;7.82;3.95;;;;;;;11.82;73.50;96998.78;4995834;28;20022;-76
2023/11/17 06:07:11;;;;;;;1.83;1.25;;;;;;;11.74;73.76;96999.38;4979578;28;20030;-76
2023/11/17 06:09:38;;;;;;;1.60;1.27;;;;;;;11.73;74.22;97003.00;4979340;28;20056;-77
2023/11/17 06:12:05;;;;;;;2.15;1.10;;;;;;;11.68;74.04;96986.41;4995870;28;20417;-75
2023/11/17 06:14:31;;;;;;;2.72;1.10;;;;;;;11.69;74.11;97006.00;5013147;28;20034;-75
2023/11/17 06:16:57;;;;;;;4.18;1.60;;;;;;;11.66;74.96;97007.06;4995547;28;20030;-75
2023/11/17 06:19:23;;;;;;;2.80;1.63;;;;;;;11.65;75.87;96999.16;4979253;28;20030;-76
2023/11/17 06:21:49;;;;;;;2.55;1.60;;;;;;;11.64;75.94;97002.81;4995368;28;20175;-76
2023/11/17 06:24:16;;;;;;;3.50;1.30;;;;;;;11.71;75.05;96996.91;4995538;28;20022;-75
2023/11/17 06:26:48;;;;;;;1.65;1.23;;;;;;;11.70;75.66;97002.38;5004642;28;20425;-76
2023/11/17 06:29:22;;;;;;;2.90;1.08;;;;;;;11.73;74.94;97002.16;5014645;28;20032;-76
2023/11/17 06:31:48;;;;;;;4.18;1.40;;;;;;;11.70;75.59;97005.06;5011667;28;20461;-77
2023/11/17 06:34:13;;;;;;;2.45;1.20;;;;;;;11.69;74.08;96985.41;5011601;28;20029;-77
2023/11/17 06:36:42;;;;;;;1.48;0.90;;;;;;;11.76;73.38;96986.69;5012703;28;20481;-77
2023/11/17 06:39:14;;;;;;;2.00;0.90;;;;;;;11.80;73.08;96979.28;5012509;28;20036;-75
2023/11/17 06:41:47;;;;;;;2.95;1.17;;;;;;;11.76;73.55;96969.75;5011683;28;20036;-76
2023/11/17 06:44:15;;;;;;;2.20;1.50;;;;;;;11.83;73.58;96976.38;4995120;28;20026;-77
2023/11/17 06:46:43;;;;;;;4.88;2.97;;;;;;;11.91;72.36;96979.31;4994152;28;20022;-76
2023/11/17 06:49:09;;;;;;;2.75;1.60;;;;;;;12.03;71.76;96972.19;5010932;28;20084;-76
2023/11/17 06:51:37;;;;;;;4.28;1.38;;;;;;;11.99;71.78;96955.47;5011317;28;20034;-75
2023/11/17 06:54:05;;;;;;;2.30;1.50;;;;;;;12.05;72.06;96957.69;5011203;28;20501;-76
2023/11/17 06:56:31;;;;;;;5.30;1.52;;;;;;;12.16;70.21;96935.38;4994773;28;20033;-75
2023/11/17 06:58:57;;;;;;;14.98;1.70;;;;;;;12.25;70.24;96927.47;5011332;28;20026;-75
2023/11/17 07:01:22;;;;;;;2.45;1.70;;;;;;;12.48;68.99;96923.84;5010881;28;20017;-75
2023/11/17 07:03:49;;;;;;;0.60;0.52;;;;;;;12.65;67.23;96921.63;4993425;28;20117;-76
2023/11/17 07:06:17;;;;;;;1.45;1.08;;;;;;;13.32;64.79;96907.13;5011016;28;20038;-76
2023/11/17 07:08:42;;;;;;;0.95;0.85;;;;;;;14.98;57.45;96896.25;5010831;28;20120;-76
2023/11/17 07:11:10;;;;;;;8.70;1.58;;;;;;;15.89;54.32;96914.78;4994405;28;20474;-75
2023/11/17 07:13:36;;;;;;;2.28;1.13;;;;;;;16.91;50.82;96909.44;5010581;28;20096;-75
2023/11/17 07:16:06;;;;;;;2.42;1.40;;;;;;;17.34;48.46;96898.78;5010791;28;20030;-76
2023/11/17 07:18:32;;;;;;;2.00;1.38;;;;;;;17.28;48.45;96879.63;4995072;28;20025;-76
2023/11/17 07:20:58;;;;;;;1.75;1.02;;;;;;;16.54;48.92;96862.66;4994202;28;20049;-77
2023/11/17 07:23:24;;;;;;;1.70;1.60;;;;;;;15.50;51.16;96884.31;5010629;28;20057;-76
2023/11/17 07:25:49;;;;;;;1.80;1.35;;;;;;;14.85;52.91;96903.72;5010548;28;20076;-75
2023/11/17 07:28:15;;;;;;;2.30;1.40;;;;;;;14.32;54.36;96906.56;5010942;28;20531;-76
2023/11/17 07:30:42;;;;;;;2.63;1.83;;;;;;;13.92;56.43;96916.38;4994065;28;20033;-77
2023/11/17 07:33:09;;;;;;;1.73;1.48;;;;;;;13.73;58.50;96917.09;5011781;28;20037;-76
2023/11/17 07:35:35;;;;;;;3.92;1.50;;;;;;;13.39;62.84;96939.69;5010289;28;20026;-76
2023/11/17 07:38:05;;;;;;;1.40;1.20;;;;;;;13.11;66.69;96940.25;5010572;28;20060;-76
2023/11/17 07:40:31;;;;;;;1.10;1.00;;;;;;;12.78;72.82;96949.19;5010521;28;20077;-76
2023/11/17 07:42:56;;;;;;;1.35;1.20;;;;;;;12.60;75.37;96945.31;5010301;28;20105;-76
2023/11/17 07:45:22;;;;;;;1.35;1.05;;;;;;;12.71;71.28;96950.66;5010233;28;20099;-77
2023/11/17 07:47:48;;;;;;;1.35;1.25;;;;;;;12.87;67.55;96943.09;5010286;28;20164;-76
2023/11/17 07:50:14;;;;;;;1.33;1.10;;;;;;;12.97;66.74;96917.22;4993963;28;20040;-76
2023/11/17 07:52:45;;;;;;;1.20;1.00;;;;;;;13.08;68.42;96936.00;5010218;28;20390;-76
2023/11/17 07:55:14;;;;;;;2.03;1.27;;;;;;;13.13;69.51;96930.28;5010419;28;20516;-77
2023/11/17 07:57:44;;;;;;;2.60;1.70;;;;;;;13.19;68.26;96906.44;4993934;28;20092;-76
2023/11/17 08:00:18;;;;;;;2.58;1.77;;;;;;;13.27;69.46;96906.66;4994022;28;20026;-74
2023/11/17 08:02:44;;;;;;;2.53;1.77;;;;;;;13.47;66.62;96862.84;4994614;28;20061;-77
2023/11/17 08:05:10;;;;;;;1.95;1.15;;;;;;;13.65;63.57;96836.28;4993675;28;20029;-76
2023/11/17 08:07:36;;;;;;;1.73;1.17;;;;;;;14.05;62.31;96831.84;4993364;28;20032;-75
2023/11/17 08:10:06;;;;;;;3.65;1.70;;;;;;;14.68;61.45;96834.34;5009713;28;20065;-76
2023/11/17 08:12:32;;;;;;;1.60;1.27;;;;;;;15.84;55.81;96804.66;5009897;28;20014;-76
2023/11/17 08:14:59;;;;;;;1.75;0.90;;;;;;;15.90;55.05;96814.88;5009502;28;20030;-75
2023/11/17 08:17:26;;;;;;;2.53;0.98;;;;;;;16.17;53.71;96816.75;5009821;28;20033;-75
2023/11/17 08:19:51;;;;;;;1.73;1.00;;;;;;;16.01;54.10;96824.63;4993455;28;20037;-77
2023/11/17 08:22:17;;;;;;;2.13;1.50;;;;;;;15.64;54.23;96836.19;4993242;28;20037;-76
2023/11/17 08:24:42;;;;;;;9.77;4.22;;;;;;;15.30;55.80;96829.50;5009325;28;20029;-75
2023/11/17 08:27:08;;;;;;;4.30;1.70;;;;;;;14.89;57.47;96832.44;5010394;28;20034;-75
2023/11/17 08:29:34;;;;;;;2.42;1.40;;;;;;;14.55;57.85;96842.72;4977217;28;20040;-76
2023/11/17 08:31:59;;;;;;;1.27;1.00;;;;;;;14.24;59.17;96852.59;4992987;28;20026;-75
2023/11/17 08:34:25;;;;;;;3.28;1.30;;;;;;;14.18;60.67;96873.81;4976974;28;20022;-76
2023/11/17 08:36:51;;;;;;;1.98;1.30;;;;;;;13.95;62.18;96873.09;4993278;28;20105;-76
2023/11/17 08:39:25;;;;;;;1.83;1.10;;;;;;;13.95;61.52;96873.09;4993070;28;20121;-76
2023/11/17 08:41:54;;;;;;;3.15;1.80;;;;;;;13.99;62.59;96877.22;4994184;28;20045;-75
2023/11/17 08:44:22;;;;;;;1.95;1.40;;;;;;;14.06;61.07;96886.44;4993619;28;20397;-76
2023/11/17 08:46:49;;;;;;;1.67;1.48;;;;;;;14.16;60.59;96876.63;4976964;28;20017;-76
2023/11/17 08:49:16;;;;;;;3.13;1.33;;;;;;;14.28;59.62;96855.84;4976660;28;20126;-76
2023/11/17 08:51:42;;;;;;;2.60;1.52;;;;;;;14.31;60.19;96852.88;4993074;28;20024;-75
2023/11/17 08:54:08;;;;;;;5.65;1.60;;;;;;;14.43;59.31;96850.00;4976333;28;20394;-75
2023/11/17 08:56:35;;;;;;;3.00;1.30;;;;;;;14.61;57.26;96851.06;4976968;28;20040;-75
2023/11/17 08:59:02;;;;;;;6.47;1.60;;;;;;;14.77;56.29;96839.78;4993040;28;20509;-76
2023/11/17 09:01:29;;;;;;;3.42;1.85;;;;;;;14.93;55.64;96840.09;4976711;28;20025;-76
2023/11/17 09:03:54;;;;;;;2.35;1.35;;;;;;;14.99;54.02;96854.84;4992821;28;20097;-76
2023/11/17 09:06:20;;;;;;;1.95;1.00;;;;;;;15.10;52.46;96849.34;5010223;28;20034;-76
2023/11/17 09:08:46;;;;;;;1.73;1.15;;;;;;;15.15;52.28;96826.38;4992857;28;20109;-76
2023/11/17 09:11:11;;;;;;;2.38;1.10;;;;;;;15.21;52.17;96822.28;4980204;28;20029;-76
2023/11/17 09:13:39;;;;;;;4.22;1.63;;;;;;;15.25;52.77;96807.53;5014492;28;20034;-75
2023/11/17 09:16:07;;;;;;;1.80;0.90;;;;;;;15.17;52.32;96810.91;4996631;28;20095;-76
2023/11/17 09:18:32;;;;;;;5.82;1.40;;;;;;;15.20;52.65;96794.47;4997184;28;20422;-75
2023/11/17 09:20:58;;;;;;;1.50;0.98;;;;;;;15.69;52.14;96788.06;5014298;28;20044;-76
2023/11/17 09:23:25;;;;;;;4.85;1.67;;;;;;;16.15;51.39;96759.41;4996526;28;20032;-76
2023/11/17 09:25:51;;;;;;;1.60;1.05;;;;;;;18.16;47.05;96740.69;4983062;28;20038;-76
2023/11/17 09:28:17;;;;;;;3.40;1.40;;;;;;;19.95;44.46;96728.16;5014047;28;20495;-75
2023/11/17 09:30:42;;;;;;;1.65;1.17;;;;;;;21.42;40.87;96696.50;4996550;28;20022;-75
2023/11/17 09:33:08;;;;;;;3.38;1.33;;;;;;;22.25;39.25;96707.28;4996281;28;20409;-75
2023/11/17 09:35:36;;;;;;;2.70;1.38;;;;;;;22.76;38.48;96698.16;4996517;28;20033;-75
2023/11/17 09:38:04;;;;;;;1.38;1.02;;;;;;;23.68;36.39;96697.25;5012422;28;20083;-74
2023/11/17 09:40:33;;;;;;;1.85;1.13;;;;;;;22.03;37.39;96701.72;4996333;28;20033;-76
2023/11/17 09:43:10;;;;;;;5.00;1.35;;;;;;;19.34;40.82;96712.41;5012627;28;20022;-76
2023/11/17 09:45:36;;;;;;;1.75;0.95;;;;;;;18.46;43.11;96721.19;5013949;28;20089;-75
2023/11/17 09:48:03;;;;;;;1.83;1.17;;;;;;;17.43;45.11;96715.88;5012774;28;20021;-74
2023/11/17 09:50:30;;;;;;;5.13;2.58;;;;;;;16.72;47.21;96721.31;4995662;28;20091;-75
2023/11/17 09:52:57;;;;;;;2.10;1.30;;;;;;;16.39;48.09;96723.78;4996028;28;20115;-76
2023/11/17 09:55:27;;;;;;;2.05;1.30;;;;;;;16.13;49.27;96739.81;5012176;28;20473;-76
2023/11/17 09:57:55;;;;;;;3.50;1.75;;;;;;;16.14;49.60;96752.31;4996443;28;20026;-76
2023/11/17 10:00:22;;;;;;;4.57;2.53;;;;;;;16.09;49.79;96723.06;5012556;28;20532;-75
2023/11/17 10:02:57;;;;;;;2.13;1.50;;;;;;;15.91;50.30;96740.16;4995912;28;20143;-75
2023/11/17 10:05:24;;;;;;;2.08;1.50;;;;;;;15.66;51.40;96742.53;4995645;28;20025;-75
2023/11/17 10:07:54;;;;;;;9.60;3.33;;;;;;;15.60;52.29;96751.19;5012120;28;20104;-76
2023/11/17 10:10:21;;;;;;;3.20;1.73;;;;;;;15.34;53.69;96747.41;5011796;28;20025;-75
2023/11/17 10:12:49;;;;;;;7.07;1.90;;;;;;;15.18;55.29;96744.41;4995654;28;20119;-76
2023/11/17 10:15:24;;;;;;;8.48;2.72;;;;;;;14.64;65.88;96764.66;5011873;28;20030;-75
2023/11/17 10:17:54;;;;;;;3.05;2.00;;;;;;;13.55;92.95;96798.59;4996321;28;20022;-75
2023/11/17 10:20:20;;;;;;;2.15;1.00;;;;;;;12.58;100.00;96807.75;4994450;28;20473;-75
2023/11/17 10:22:49;;;;;;;2.60;0.35;;;;;;;12.14;100.00;96830.09;5012565;28;20022;-76
2023/11/17 10:25:19;;;;;;;1.33;0.40;;;;;;;11.83;100.00;96853.13;4995348;28;20144;-76
2023/11/17 10:27:49;;;;;;;1.25;1.15;;;;;;;11.68;100.00;96835.53;4995881;28;20461;-75
2023/11/17 10:30:15;;;;;;;0.28;0.28;;;;;;;11.53;100.00;96828.69;4979528;28;20124;-75
2023/11/17 10:32:43;;;;;;;0.40;0.40;;;;;;;11.41;100.00;96833.16;4995493;28;20111;-75
2023/11/17 10:35:16;;;;;;;0.60;0.60;;;;;;;11.35;100.00;96829.09;4995152;28;20037;-76
2023/11/17 10:37:44;;;;;;;0.22;0.22;;;;;;;11.39;100.00;96830.59;4979898;28;20464;-77
2023/11/17 10:40:10;;;;;;;0.45;0.45;;;;;;;11.53;100.00;96840.25;4979006;28;20370;-76
2023/11/17 10:42:35;;;;;;;2.20;0.60;;;;;;;11.66;100.00;96834.81;4978844;28;20018;-77
2023/11/17 10:45:16;;;;;;;0.43;0.40;;;;;;;11.92;100.00;96814.88;4976953;28;20026;-78
2023/11/17 10:47:43;;;;;;;0.15;0.15;;;;;;;12.16;100.00;96786.13;4995347;28;20021;-77
2023/11/17 10:50:09;;;;;;;0.25;0.25;;;;;;;12.73;100.00;96779.66;5012415;28;20026;-76
2023/11/17 10:52:35;;;;;;;0.65;0.28;;;;;;;13.03;100.00;96755.63;4994922;28;20405;-77
2023/11/17 10:55:00;;;;;;;0.60;0.55;;;;;;;13.58;100.00;96747.25;4978206;28;20022;-75
2023/11/17 10:57:26;;;;;;;1.27;0.47;;;;;;;13.94;100.00;96715.44;4994910;28;20099;-79
2023/11/17 10:59:52;;;;;;;0.30;0.20;;;;;;;15.19;88.52;96708.41;4978612;28;20044;-76
2023/11/17 11:02:19;;;;;;;0.55;0.43;;;;;;;15.88;78.62;96698.16;4978399;28;20033;-76
2023/11/17 11:04:46;;;;;;;4.75;0.52;;;;;;;16.39;74.70;96670.63;4995135;28;20473;-77
2023/11/17 11:07:14;;;;;;;0.10;0.10;;;;;;;16.89;67.94;96662.88;4994545;28;20041;-75
2023/11/17 11:09:40;;;;;;;0.20;0.20;;;;;;;16.73;63.94;96647.38;4978566;28;20030;-75
2023/11/17 11:12:13;;;;;;;0.00;0.00;;;;;;;16.19;67.67;96656.41;4994545;28;20036;-77
2023/11/17 11:14:43;;;;;;;0.00;0.00;;;;;;;15.87;67.12;96653.34;4994587;28;20076;-76
2023/11/17 11:17:12;;;;;;;0.10;0.10;;;;;;;15.49;71.23;96662.44;4994728;28;20110;-75
2023/11/17 11:19:38;;;;;;;0.20;0.20;;;;;;;15.18;73.26;96666.28;4978534;28;20417;-76
2023/11/17 11:22:07;;;;;;;0.10;0.10;;;;;;;15.13;75.03;96671.28;4994606;28;20482;-77
2023/11/17 11:24:36;;;;;;;0.52;0.30;;;;;;;14.99;74.54;96666.31;4994611;28;20025;-76
2023/11/17 11:27:02;;;;;;;0.15;0.15;;;;;;;15.01;76.73;96667.03;4989843;28;20100;-76
2023/11/17 11:29:29;;;;;;;0.00;0.00;;;;;;;15.02;75.85;96671.41;4994085;28;20096;-75
2023/11/17 11:31:56;;;;;;;1.92;0.82;;;;;;;15.17;73.91;96670.81;5010164;28;20021;-76